createdAt,value
2018-07-01T00:00:07.465Z,69.43
2018-07-01T00:01:07.387Z,69.14
2018-07-01T00:02:07.652Z,69.14
2018-07-01T00:03:07.425Z,69.14
2018-07-01T00:04:07.403Z,69.33
2018-07-01T00:05:07.486Z,69.14
2018-07-01T00:06:07.443Z,69.24
2018-07-01T00:07:07.426Z,69.46
2018-07-01T00:08:07.463Z,69.14
2018-07-01T00:09:07.425Z,69.37
2018-07-01T00:10:07.532Z,69.08
2018-07-01T00:11:07.428Z,69.14
2018-07-01T00:12:07.483Z,69.17
2018-07-01T00:13:07.437Z,69.37
2018-07-01T00:14:07.547Z,69.17
2018-07-01T00:15:07.480Z,69.37
2018-07-01T00:16:07.456Z,68.98
2018-07-01T00:17:07.495Z,68.98
2018-07-01T00:18:07.427Z,69.46
2018-07-01T00:19:07.459Z,69.33
2018-07-01T00:20:07.469Z,69.43
2018-07-01T00:21:07.439Z,69.66
2018-07-01T00:22:07.449Z,69.62
2018-07-01T00:23:08.354Z,69.33
2018-07-01T00:24:07.441Z,69.62
2018-07-01T00:25:07.438Z,69.53
2018-07-01T00:26:07.477Z,69.43
2018-07-01T00:27:07.448Z,69.53
2018-07-01T00:28:07.485Z,69.72
2018-07-01T00:29:07.462Z,69.72
2018-07-01T00:30:07.497Z,69.62
2018-07-01T00:31:08.056Z,69.43
2018-07-01T00:32:07.491Z,69.72
2018-07-01T00:33:07.480Z,69.82
2018-07-01T00:34:07.472Z,69.72
2018-07-01T00:35:07.478Z,69.82
2018-07-01T00:36:07.471Z,69.82
2018-07-01T00:37:07.441Z,69.53
2018-07-01T00:38:07.449Z,69.92
2018-07-01T00:39:07.494Z,69.92
2018-07-01T00:40:07.465Z,69.72
2018-07-01T00:41:07.491Z,70.3
2018-07-01T00:42:07.501Z,69.72
2018-07-01T00:43:08.559Z,69.62
2018-07-01T00:44:07.511Z,70.1
2018-07-01T00:45:07.507Z,70.1
2018-07-01T00:46:07.529Z,69.72
2018-07-01T00:47:07.510Z,69.92
2018-07-01T00:48:07.484Z,70.59
2018-07-01T00:49:07.473Z,69.62
2018-07-01T00:50:07.894Z,70.4
2018-07-01T00:51:07.486Z,69.92
2018-07-01T00:52:07.513Z,70.01
2018-07-01T00:53:07.506Z,70.01
2018-07-01T00:54:07.553Z,70.59
2018-07-01T00:55:07.539Z,70.5
2018-07-01T00:56:07.543Z,70.59
2018-07-01T00:57:07.496Z,70.3
2018-07-01T00:58:07.525Z,70.3
2018-07-01T00:59:07.511Z,70.3
2018-07-01T01:00:07.540Z,70.59
2018-07-01T01:06:47.337Z,70.56
2018-07-01T01:07:47.344Z,70.75
2018-07-01T01:08:47.377Z,70.59
2018-07-01T01:09:47.336Z,70.78
2018-07-01T01:10:47.349Z,70.94
2018-07-01T01:11:47.404Z,71.04
2018-07-01T01:12:47.400Z,70.36
2018-07-01T01:13:47.372Z,70.5
2018-07-01T01:14:47.339Z,70.75
2018-07-01T01:15:47.367Z,71.04
2018-07-01T01:16:48.023Z,70.68
2018-07-01T01:17:47.392Z,70.75
2018-07-01T01:18:47.371Z,70.68
2018-07-01T01:19:47.367Z,70.84
2018-07-01T01:20:47.376Z,70.59
2018-07-01T01:21:47.367Z,70.56
2018-07-01T01:22:47.367Z,70.98
2018-07-01T01:23:47.372Z,70.75
2018-07-01T01:24:47.411Z,70.94
2018-07-01T01:25:47.361Z,70.84
2018-07-01T01:26:47.395Z,71.08
2018-07-01T01:27:47.353Z,70.78
2018-07-01T01:28:47.380Z,70.65
2018-07-01T01:29:47.407Z,70.65
2018-07-01T01:30:47.444Z,70.68
2018-07-01T01:31:47.375Z,70.78
2018-07-01T01:32:47.405Z,70.65
2018-07-01T01:33:47.386Z,70.75
2018-07-01T01:34:47.447Z,70.65
2018-07-01T01:35:47.375Z,70.68
2018-07-01T01:36:47.403Z,70.65
2018-07-01T01:37:47.367Z,70.65
2018-07-01T01:38:47.391Z,71.17
2018-07-01T01:39:47.388Z,71.33
2018-07-01T01:40:47.407Z,70.84
2018-07-01T01:41:47.364Z,70.98
2018-07-01T01:42:47.455Z,70.94
2018-07-01T01:43:47.369Z,71.26
2018-07-01T01:44:47.388Z,70.98
2018-07-01T01:45:47.411Z,70.98
2018-07-01T01:46:47.450Z,70.75
2018-07-01T01:47:47.391Z,71.17
2018-07-01T01:48:47.413Z,71.23
2018-07-01T01:49:47.419Z,71.26
2018-07-01T01:50:47.419Z,71.33
2018-07-01T01:51:47.451Z,71.26
2018-07-01T01:52:47.465Z,71.14
2018-07-01T01:53:47.394Z,71.26
2018-07-01T01:54:47.427Z,71.42
2018-07-01T01:55:47.426Z,71.56
2018-07-01T01:56:47.407Z,71.46
2018-07-01T01:57:47.447Z,71.36
2018-07-01T01:58:47.449Z,71.72
2018-07-01T01:59:47.427Z,71.94
2018-07-01T02:00:47.463Z,71.66
2018-07-01T02:01:47.445Z,71.72
2018-07-01T02:02:48.421Z,71.75
2018-07-01T02:03:47.456Z,71.62
2018-07-01T02:04:47.417Z,71.75
2018-07-01T02:05:47.722Z,71.72
2018-07-01T02:06:47.453Z,71.81
2018-07-01T02:07:47.425Z,71.81
2018-07-01T02:08:47.518Z,71.66
2018-07-01T02:09:47.464Z,71.56
2018-07-01T02:10:47.474Z,71.81
2018-07-01T02:11:47.455Z,71.81
2018-07-01T02:12:47.488Z,71.56
2018-07-01T02:13:47.478Z,71.91
2018-07-01T02:14:47.432Z,71.72
2018-07-01T02:15:47.454Z,71.33
2018-07-01T02:16:47.463Z,71.84
2018-07-01T02:17:47.450Z,72.14
2018-07-01T02:18:47.452Z,71.66
2018-07-01T02:19:47.453Z,71.72
2018-07-01T02:20:47.484Z,71.62
2018-07-01T02:21:47.473Z,71.62
2018-07-01T02:22:47.557Z,71.84
2018-07-01T02:23:47.490Z,71.62
2018-07-01T02:24:47.490Z,72.04
2018-07-01T02:25:47.520Z,72
2018-07-01T02:26:47.514Z,72
2018-07-01T02:27:47.504Z,72.1
2018-07-01T02:28:47.459Z,72.1
2018-07-01T02:29:47.476Z,72.1
2018-07-01T02:30:47.501Z,72.14
2018-07-01T02:31:47.531Z,71.81
2018-07-01T02:32:47.519Z,72
2018-07-01T02:33:47.506Z,72.39
2018-07-01T02:34:47.505Z,72.42
2018-07-01T02:35:47.477Z,72.42
2018-07-01T02:36:47.514Z,72.58
2018-07-01T02:37:47.504Z,72.04
2018-07-01T02:38:47.476Z,72.04
2018-07-01T02:39:47.575Z,72.49
2018-07-01T02:40:47.526Z,72.72
2018-07-01T02:41:47.494Z,72.68
2018-07-01T02:42:47.508Z,72.81
2018-07-01T02:43:47.488Z,72.58
2018-07-01T02:44:47.568Z,72.42
2018-07-01T02:46:03.692Z,72.68
2018-07-01T02:47:03.710Z,72.72
2018-07-01T02:48:03.668Z,72.49
2018-07-01T02:49:03.671Z,72.58
2018-07-01T02:50:03.690Z,72.42
2018-07-01T02:51:03.674Z,72.58
2018-07-01T02:52:03.698Z,72.49
2018-07-01T02:53:03.704Z,72.39
2018-07-01T02:54:03.686Z,72.42
2018-07-01T02:55:03.686Z,72.39
2018-07-01T02:56:03.697Z,72.42
2018-07-01T02:57:03.730Z,72.49
2018-07-01T02:58:03.730Z,72.68
2018-07-01T02:59:03.738Z,72.42
2018-07-01T03:00:03.728Z,72.72
2018-07-01T03:01:03.771Z,72.68
2018-07-01T03:02:03.702Z,72.78
2018-07-01T03:03:03.693Z,72.68
2018-07-01T03:04:03.697Z,72.72
2018-07-01T03:05:03.695Z,72.81
2018-07-01T03:06:03.735Z,72.68
2018-07-01T03:07:03.712Z,72.42
2018-07-01T03:08:03.731Z,72.78
2018-07-01T03:09:03.704Z,72.58
2018-07-01T03:10:03.709Z,72.42
2018-07-01T03:11:03.694Z,72.49
2018-07-01T03:12:03.715Z,72.58
2018-07-01T03:13:03.706Z,72.39
2018-07-01T03:14:03.755Z,72.97
2018-07-01T03:15:03.804Z,72.68
2018-07-01T03:16:03.774Z,72.91
2018-07-01T03:17:03.708Z,72.78
2018-07-01T03:18:03.753Z,72.78
2018-07-01T03:19:03.750Z,72.88
2018-07-01T03:20:03.716Z,72.78
2018-07-01T03:21:03.738Z,72.88
2018-07-01T03:22:03.730Z,72.78
2018-07-01T03:23:03.762Z,73.46
2018-07-01T03:24:03.761Z,73.16
2018-07-01T03:25:03.750Z,73.07
2018-07-01T03:26:03.762Z,72.97
2018-07-01T03:27:03.772Z,73.16
2018-07-01T03:28:03.750Z,72.97
2018-07-01T03:29:03.737Z,73.07
2018-07-01T03:30:03.733Z,73.07
2018-07-01T03:31:03.764Z,73.07
2018-07-01T03:32:03.746Z,73.07
2018-07-01T03:33:03.759Z,73.07
2018-07-01T03:34:03.743Z,73.07
2018-07-01T03:35:03.769Z,73.07
2018-07-01T03:36:03.800Z,73.26
2018-07-01T03:37:03.757Z,73.3
2018-07-01T03:38:03.769Z,73.26
2018-07-01T03:39:03.787Z,73.07
2018-07-01T03:40:03.777Z,73.16
2018-07-01T03:41:05.158Z,73.07
2018-07-01T03:42:03.812Z,73.26
2018-07-01T03:43:03.773Z,73.26
2018-07-01T03:44:03.794Z,72.97
2018-07-01T03:45:03.811Z,73.16
2018-07-01T03:46:03.808Z,73.07
2018-07-01T03:47:03.776Z,73.16
2018-07-01T03:48:03.800Z,73.2
2018-07-01T03:49:03.783Z,73.36
2018-07-01T03:50:03.812Z,73.39
2018-07-01T03:51:03.815Z,73.1
2018-07-01T03:52:03.784Z,73.26
2018-07-01T03:53:03.819Z,73.1
2018-07-01T03:54:03.772Z,73.1
2018-07-01T03:55:03.821Z,72.97
2018-07-01T03:56:03.788Z,73.07
2018-07-01T03:57:03.845Z,73.3
2018-07-01T03:58:03.825Z,73.26
2018-07-01T03:59:03.820Z,73.07
2018-07-01T04:00:03.795Z,73.16
2018-07-01T04:01:03.830Z,73.07
2018-07-01T04:02:03.860Z,73.36
2018-07-01T04:03:03.815Z,73.26
2018-07-01T04:04:03.822Z,73.16
2018-07-01T04:05:03.838Z,73.07
2018-07-01T04:06:03.856Z,73.1
2018-07-01T04:07:03.841Z,73.07
2018-07-01T04:08:03.857Z,73.26
2018-07-01T04:09:03.839Z,73.26
2018-07-01T04:10:03.843Z,73.39
2018-07-01T04:11:03.886Z,73.68
2018-07-01T04:12:03.831Z,73.74
2018-07-01T04:13:03.838Z,73.59
2018-07-01T04:14:03.843Z,73.49
2018-07-01T04:15:03.830Z,73.78
2018-07-01T04:16:03.881Z,73.46
2018-07-01T04:17:03.865Z,73.55
2018-07-01T04:18:03.871Z,73.46
2018-07-01T04:19:03.828Z,73.59
2018-07-01T04:20:03.847Z,73.3
2018-07-01T04:21:03.830Z,73.55
2018-07-01T04:22:03.825Z,73.26
2018-07-01T04:23:03.833Z,73.55
2018-07-01T04:24:03.850Z,73.46
2018-07-01T04:25:04.012Z,73.46
2018-07-01T04:26:03.903Z,73.46
2018-07-01T04:27:03.822Z,73.55
2018-07-01T04:28:03.859Z,73.26
2018-07-01T04:29:03.847Z,73.39
2018-07-01T04:30:03.871Z,73.1
2018-07-01T04:31:03.889Z,73.07
2018-07-01T04:32:03.857Z,73.49
2018-07-01T04:33:03.832Z,73.39
2018-07-01T04:34:03.867Z,73.07
2018-07-01T04:35:03.853Z,73.39
2018-07-01T04:36:03.843Z,72.88
2018-07-01T04:37:03.840Z,73.2
2018-07-01T04:38:03.871Z,73.16
2018-07-01T04:39:03.900Z,73.3
2018-07-01T04:40:03.890Z,73.46
2018-07-01T04:41:03.889Z,72.88
2018-07-01T04:42:03.899Z,73.46
2018-07-01T04:43:03.878Z,72.91
2018-07-01T04:44:03.854Z,73.36
2018-07-01T04:45:03.867Z,73.16
2018-07-01T04:46:03.897Z,73.49
2018-07-01T04:47:03.873Z,72.88
2018-07-01T04:48:03.861Z,73.59
2018-07-01T04:49:03.910Z,73.59
2018-07-01T04:50:03.901Z,73.49
2018-07-01T04:51:03.908Z,73.1
2018-07-01T04:52:03.893Z,73.65
2018-07-01T04:53:03.913Z,73.49
2018-07-01T04:54:03.897Z,73.68
2018-07-01T04:55:03.950Z,73.26
2018-07-01T04:56:03.894Z,73.59
2018-07-01T04:57:03.895Z,73.59
2018-07-01T04:58:03.893Z,73.39
2018-07-01T04:59:03.928Z,73.78
2018-07-01T05:00:03.917Z,73.46
2018-07-01T05:01:03.919Z,73.55
2018-07-01T05:02:03.977Z,73.68
2018-07-01T05:03:03.933Z,73.49
2018-07-01T05:04:03.914Z,73.1
2018-07-01T05:05:03.971Z,73.2
2018-07-01T05:06:03.930Z,73.49
2018-07-01T05:07:03.965Z,73.1
2018-07-01T05:08:03.916Z,73.26
2018-07-01T05:09:03.953Z,73.01
2018-07-01T05:10:03.908Z,73.3
2018-07-01T05:11:03.958Z,72.91
2018-07-01T05:12:03.910Z,73.2
2018-07-01T05:13:03.965Z,73.39
2018-07-01T05:14:03.948Z,73.3
2018-07-01T05:15:03.966Z,73.01
2018-07-01T05:16:03.943Z,73.49
2018-07-01T05:17:04.402Z,73.1
2018-07-01T05:18:03.958Z,73.3
2018-07-01T05:19:03.965Z,73.07
2018-07-01T05:23:35.703Z,73.3
2018-07-01T05:24:35.662Z,73.3
2018-07-01T05:25:35.636Z,73.3
2018-07-01T05:26:35.644Z,73.39
2018-07-01T05:27:35.674Z,73.3
2018-07-01T05:28:35.617Z,72.62
2018-07-01T05:29:35.622Z,73.3
2018-07-01T05:30:35.621Z,73.2
2018-07-01T05:31:35.637Z,73.39
2018-07-01T05:32:36.155Z,73.49
2018-07-01T05:33:35.615Z,73.2
2018-07-01T05:34:35.633Z,73.01
2018-07-01T05:35:35.715Z,73.59
2018-07-01T05:36:35.617Z,73.3
2018-07-01T05:37:35.667Z,73.01
2018-07-01T05:38:35.644Z,73.3
2018-07-01T05:39:35.657Z,73.2
2018-07-01T05:40:35.672Z,73.3
2018-07-01T05:41:36.328Z,73.3
2018-07-01T05:42:35.673Z,73.1
2018-07-01T05:43:35.660Z,73.3
2018-07-01T05:44:35.668Z,73.3
2018-07-01T05:45:35.699Z,73.3
2018-07-01T05:46:35.656Z,73.3
2018-07-01T05:47:35.660Z,73.55
2018-07-01T05:48:35.685Z,73.2
2018-07-01T05:49:35.691Z,73.3
2018-07-01T05:50:35.680Z,72.14
2018-07-01T05:51:35.665Z,72.72
2018-07-01T05:52:35.690Z,73.1
2018-07-01T05:53:35.669Z,72.33
2018-07-01T05:54:35.675Z,73.01
2018-07-01T05:55:35.664Z,72.91
2018-07-01T05:56:35.674Z,72.72
2018-07-01T05:57:35.666Z,72.81
2018-07-01T05:58:35.704Z,72.91
2018-07-01T05:59:35.738Z,72.72
2018-07-01T06:00:35.697Z,73.1
2018-07-01T06:01:35.719Z,73.01
2018-07-01T06:02:35.643Z,72.91
2018-07-01T06:03:35.689Z,73.2
2018-07-01T06:04:35.720Z,72.81
2018-07-01T06:05:35.740Z,72.78
2018-07-01T06:06:35.682Z,73.01
2018-07-01T06:07:35.759Z,72.91
2018-07-01T06:08:35.792Z,72.72
2018-07-01T06:09:35.729Z,72.91
2018-07-01T06:10:35.700Z,72.88
2018-07-01T06:11:35.744Z,72.52
2018-07-01T06:12:35.726Z,72
2018-07-01T06:13:35.693Z,72
2018-07-01T06:14:35.737Z,72.42
2018-07-01T06:15:35.718Z,72.33
2018-07-01T06:16:35.830Z,71.94
2018-07-01T06:17:35.668Z,72.14
2018-07-01T06:18:35.681Z,72.58
2018-07-01T06:19:35.690Z,72.72
2018-07-01T06:20:35.738Z,72.42
2018-07-01T06:21:35.737Z,72.72
2018-07-01T06:22:35.750Z,72.68
2018-07-01T06:23:35.713Z,72.62
2018-07-01T06:24:35.760Z,72.72
2018-07-01T06:25:35.746Z,72.33
2018-07-01T06:26:35.713Z,72.52
2018-07-01T06:27:35.760Z,72.72
2018-07-01T06:28:35.702Z,72.52
2018-07-01T06:29:35.723Z,72.52
2018-07-01T06:30:35.715Z,72.62
2018-07-01T06:31:35.764Z,72.72
2018-07-01T06:32:35.748Z,72.42
2018-07-01T06:33:35.755Z,72.72
2018-07-01T06:34:35.715Z,72.52
2018-07-01T06:35:35.735Z,71.94
2018-07-01T06:36:35.731Z,72.81
2018-07-01T06:37:35.760Z,70.68
2018-07-01T06:38:35.778Z,71.14
2018-07-01T06:39:35.810Z,71.72
2018-07-01T06:40:35.749Z,71.75
2018-07-01T06:41:35.780Z,72.14
2018-07-01T06:42:35.777Z,72
2018-07-01T06:43:35.736Z,71.75
2018-07-01T06:44:35.769Z,71.66
2018-07-01T06:45:35.789Z,72.14
2018-07-01T06:46:35.784Z,72
2018-07-01T06:47:35.798Z,72.3
2018-07-01T06:48:35.774Z,72.33
2018-07-01T06:49:35.804Z,72.04
2018-07-01T06:50:35.768Z,72.42
2018-07-01T06:51:35.791Z,70.98
2018-07-01T06:52:35.844Z,70.88
2018-07-01T06:53:35.804Z,71.36
2018-07-01T06:54:35.744Z,71.84
2018-07-01T06:55:35.766Z,71.84
2018-07-01T06:56:35.832Z,71.81
2018-07-01T06:57:35.835Z,71.52
2018-07-01T06:58:35.850Z,71.75
2018-07-01T06:59:35.802Z,71.94
2018-07-01T07:00:35.807Z,72.04
2018-07-01T07:01:35.804Z,72.24
2018-07-01T07:02:35.795Z,71.94
2018-07-01T07:03:35.826Z,72.24
2018-07-01T07:04:35.850Z,71.94
2018-07-01T07:05:35.834Z,72.24
2018-07-01T07:06:35.760Z,70.78
2018-07-01T07:07:35.773Z,70.68
2018-07-01T07:08:35.808Z,70.98
2018-07-01T07:09:35.786Z,71.33
2018-07-01T07:10:35.852Z,71.17
2018-07-01T07:11:35.797Z,71.81
2018-07-01T07:12:35.849Z,70.78
2018-07-01T07:13:35.803Z,71.23
2018-07-01T07:14:35.786Z,71.72
2018-07-01T07:15:42.010Z,71.72
2018-07-01T07:16:37.234Z,69.24
2018-07-01T07:17:42.638Z,69.59
2018-07-01T07:18:35.808Z,69.59
2018-07-01T07:19:35.850Z,71.04
2018-07-01T07:20:35.802Z,70.75
2018-07-01T07:21:35.842Z,71.26
2018-07-01T07:22:35.812Z,70.78
2018-07-01T07:23:35.792Z,69.78
2018-07-01T07:24:35.922Z,70.94
2018-07-01T07:25:35.844Z,70.75
2018-07-01T07:26:35.811Z,70.65
2018-07-01T07:27:35.827Z,70.88
2018-07-01T07:28:35.808Z,70.68
2018-07-01T07:29:35.833Z,71.17
2018-07-01T07:30:35.846Z,70.68
2018-07-01T07:31:35.871Z,71.14
2018-07-01T07:32:35.832Z,70.59
2018-07-01T07:33:35.871Z,70.56
2018-07-01T07:34:35.818Z,70.84
2018-07-01T07:35:35.825Z,67.94
2018-07-01T07:36:35.871Z,68.14
2018-07-01T07:37:35.855Z,69.01
2018-07-01T07:38:35.873Z,68.82
2018-07-01T07:39:35.852Z,69.1
2018-07-01T07:40:35.861Z,69.88
2018-07-01T07:41:35.843Z,69.59
2018-07-01T07:42:35.870Z,70.56
2018-07-01T07:43:35.903Z,70.26
2018-07-01T07:44:35.841Z,69.59
2018-07-01T07:45:35.888Z,69.59
2018-07-01T07:46:35.861Z,69.3
2018-07-01T07:47:35.855Z,68.72
2018-07-01T07:48:35.858Z,69.1
2018-07-01T07:49:35.884Z,69.78
2018-07-01T07:50:35.871Z,70.26
2018-07-01T07:51:35.900Z,70.26
2018-07-01T07:52:36.293Z,68.82
2018-07-01T07:53:35.858Z,69.68
2018-07-01T07:54:35.846Z,70.65
2018-07-01T07:55:35.883Z,70.65
2018-07-01T07:56:35.862Z,70.46
2018-07-01T07:57:35.861Z,70.26
2018-07-01T07:58:35.921Z,70.65
2018-07-01T07:59:35.873Z,70.46
2018-07-01T08:00:35.909Z,70.46
2018-07-01T08:01:35.888Z,70.07
2018-07-01T08:02:35.893Z,70.56
2018-07-01T08:03:35.907Z,70.46
2018-07-01T08:04:36.305Z,70.36
2018-07-01T08:05:35.939Z,69.1
2018-07-01T08:06:35.878Z,69.98
2018-07-01T08:07:35.904Z,69.4
2018-07-01T08:08:35.881Z,68.04
2018-07-01T08:09:35.890Z,68.14
2018-07-01T08:10:36.539Z,69.4
2018-07-01T08:11:35.928Z,68.04
2018-07-01T08:12:35.885Z,69.2
2018-07-01T08:13:35.888Z,69.3
2018-07-01T08:14:35.935Z,69.59
2018-07-01T08:15:37.420Z,69.59
2018-07-01T08:16:35.889Z,69.01
2018-07-01T08:17:35.894Z,66.4
2018-07-01T08:18:35.931Z,67.08
2018-07-01T08:19:35.930Z,68.14
2018-07-01T08:20:35.941Z,67.66
2018-07-01T08:21:35.892Z,68.82
2018-07-01T08:22:35.930Z,69.01
2018-07-01T08:23:35.987Z,69.1
2018-07-01T08:24:35.936Z,68.72
2018-07-01T08:25:35.959Z,69.1
2018-07-01T08:26:35.929Z,69.01
2018-07-01T08:27:36.010Z,68.91
2018-07-01T08:28:35.986Z,69.98
2018-07-01T08:29:36.023Z,69.59
2018-07-01T08:30:36.012Z,69.72
2018-07-01T08:31:35.915Z,69.78
2018-07-01T08:32:35.967Z,69.1
2018-07-01T08:33:35.999Z,69.2
2018-07-01T08:38:05.094Z,69.49
2018-07-01T08:39:05.056Z,69.59
2018-07-01T08:40:05.025Z,70.4
2018-07-01T08:41:05.090Z,70.07
2018-07-01T08:42:05.079Z,70.5
2018-07-01T08:43:05.018Z,69.33
2018-07-01T08:44:05.018Z,69.78
2018-07-01T08:45:05.101Z,70.26
2018-07-01T08:46:05.100Z,70.59
2018-07-01T08:47:05.166Z,70.36
2018-07-01T08:48:05.105Z,70.26
2018-07-01T08:49:05.067Z,70.46
2018-07-01T08:50:05.080Z,70.26
2018-07-01T08:51:05.070Z,70.17
2018-07-01T08:53:24.054Z,69.68
2018-07-01T08:54:24.687Z,70.17
2018-07-01T08:55:24.006Z,69.68
2018-07-01T08:56:24.045Z,69.49
2018-07-01T08:57:24.129Z,69.78
2018-07-01T08:58:23.985Z,69.68
2018-07-01T08:59:23.978Z,69.1
2018-07-01T09:00:23.936Z,67.85
2018-07-01T09:01:23.992Z,69.1
2018-07-01T09:02:24.010Z,69.1
2018-07-01T09:03:23.980Z,69.59
2018-07-01T09:04:23.968Z,69.01
2018-07-01T09:05:23.992Z,69.04
2018-07-01T09:06:24.405Z,69.01
2018-07-01T09:07:24.032Z,69.49
2018-07-01T09:08:24.073Z,69.1
2018-07-01T09:09:24.000Z,69.59
2018-07-01T09:10:23.956Z,69.53
2018-07-01T09:11:23.990Z,69.49
2018-07-01T09:12:34.841Z,69.78
2018-07-01T09:13:24.056Z,69.78
2018-07-01T09:14:24.020Z,69.88
2018-07-01T09:15:24.033Z,69.4
2018-07-01T09:16:24.274Z,69.49
2018-07-01T09:17:24.082Z,69.68
2018-07-01T09:18:24.382Z,69.78
2018-07-01T09:19:23.983Z,70.1
2018-07-01T09:20:24.025Z,70.26
2018-07-01T09:21:23.994Z,69.59
2018-07-01T09:22:24.026Z,69.78
2018-07-01T09:23:24.137Z,69.72
2018-07-01T09:24:24.055Z,69.59
2018-07-01T09:25:24.004Z,69.72
2018-07-01T09:26:24.021Z,69.72
2018-07-01T09:27:24.057Z,70.2
2018-07-01T09:28:24.122Z,70.01
2018-07-01T09:29:24.146Z,69.53
2018-07-01T09:30:24.118Z,69.72
2018-07-01T09:31:24.041Z,69.82
2018-07-01T09:32:24.016Z,69.78
2018-07-01T09:33:23.996Z,69.62
2018-07-01T09:34:24.062Z,69.43
2018-07-01T09:35:24.024Z,70.01
2018-07-01T09:36:24.090Z,69.53
2018-07-01T09:37:24.054Z,69.43
2018-07-01T09:38:24.028Z,69.92
2018-07-01T09:39:24.032Z,69.82
2018-07-01T09:40:24.039Z,69.53
2018-07-01T09:41:24.096Z,69.92
2018-07-01T09:42:24.113Z,69.82
2018-07-01T09:43:24.132Z,69.53
2018-07-01T09:44:24.096Z,70.1
2018-07-01T09:45:24.044Z,69.53
2018-07-01T09:46:24.031Z,69.62
2018-07-01T09:47:24.045Z,69.72
2018-07-01T09:48:24.018Z,69.72
2018-07-01T09:49:24.095Z,69.43
2018-07-01T09:50:24.154Z,69.53
2018-07-01T09:51:24.134Z,69.82
2018-07-01T09:52:24.098Z,70.01
2018-07-01T09:53:24.457Z,69.43
2018-07-01T09:54:24.049Z,69.62
2018-07-01T09:55:24.084Z,69.43
2018-07-01T09:56:24.851Z,69.62
2018-07-01T09:57:24.075Z,69.43
2018-07-01T09:58:24.089Z,69.62
2018-07-01T09:59:24.056Z,69.43
2018-07-01T10:00:24.077Z,69.43
2018-07-01T10:01:24.125Z,69.43
2018-07-01T10:02:24.093Z,69.72
2018-07-01T10:03:24.092Z,70.01
2018-07-01T10:04:24.099Z,69.92
2018-07-01T10:05:24.100Z,69.62
2018-07-01T10:06:26.781Z,69.92
2018-07-01T10:07:24.267Z,69.82
2018-07-01T10:08:24.142Z,69.72
2018-07-01T10:09:24.115Z,69.72
2018-07-01T10:10:24.092Z,69.53
2018-07-01T10:11:24.102Z,69.33
2018-07-01T10:12:24.074Z,68.75
2018-07-01T10:13:24.099Z,69.04
2018-07-01T10:14:24.108Z,67.98
2018-07-01T10:15:24.122Z,68.17
2018-07-01T10:16:24.092Z,68.46
2018-07-01T10:17:24.104Z,68.17
2018-07-01T10:18:24.193Z,68.27
2018-07-01T10:19:24.096Z,67.69
2018-07-01T10:20:24.125Z,67.36
2018-07-01T10:24:52.277Z,66.59
2018-07-01T10:25:53.207Z,67.3
2018-07-01T10:26:52.255Z,67.11
2018-07-01T10:27:52.339Z,67.11
2018-07-01T10:28:52.230Z,67.11
2018-07-01T10:29:52.342Z,67.11
2018-07-01T10:30:52.267Z,67.01
2018-07-01T10:31:52.262Z,67.01
2018-07-01T10:32:52.306Z,66.91
2018-07-01T10:33:52.262Z,67.01
2018-07-01T10:34:52.249Z,67.11
2018-07-01T10:35:52.258Z,67.11
2018-07-01T10:36:52.247Z,67.21
2018-07-01T10:37:52.248Z,67.3
2018-07-01T10:38:52.244Z,66.82
2018-07-01T10:39:52.223Z,67.11
2018-07-01T10:40:52.288Z,66.72
2018-07-01T10:41:52.422Z,67.3
2018-07-01T10:42:52.304Z,66.91
2018-07-01T10:43:52.311Z,67.4
2018-07-01T10:44:52.265Z,67.21
2018-07-01T10:45:52.354Z,67.4
2018-07-01T10:46:52.331Z,67.01
2018-07-01T10:47:52.265Z,67.59
2018-07-01T10:48:52.296Z,67.3
2018-07-01T10:49:52.299Z,66.91
2018-07-01T10:50:52.272Z,66.91
2018-07-01T10:51:52.258Z,66.82
2018-07-01T10:52:52.290Z,66.91
2018-07-01T10:53:52.287Z,67.3
2018-07-01T10:54:52.269Z,67.11
2018-07-01T10:55:52.358Z,67.11
2018-07-01T10:56:52.348Z,67.11
2018-07-01T10:57:52.328Z,67.21
2018-07-01T10:58:52.361Z,67.59
2018-07-01T10:59:52.282Z,67.49
2018-07-01T11:00:52.324Z,67.3
2018-07-01T11:01:52.344Z,67.69
2018-07-01T11:02:52.301Z,67.49
2018-07-01T11:03:52.352Z,67.49
2018-07-01T11:04:52.349Z,67.49
2018-07-01T11:05:52.581Z,67.49
2018-07-01T11:06:52.348Z,67.59
2018-07-01T11:07:52.314Z,67.49
2018-07-01T11:08:52.322Z,67.69
2018-07-01T11:09:52.299Z,67.59
2018-07-01T11:10:52.355Z,67.59
2018-07-01T11:11:52.356Z,67.49
2018-07-01T11:12:52.350Z,67.49
2018-07-01T11:13:52.344Z,67.69
2018-07-01T11:14:52.310Z,67.59
2018-07-01T11:15:52.373Z,67.59
2018-07-01T11:16:52.341Z,67.59
2018-07-01T11:17:52.320Z,67.49
2018-07-01T11:18:52.419Z,67.59
2018-07-01T11:19:52.391Z,67.49
2018-07-01T11:20:52.394Z,67.4
2018-07-01T11:21:52.302Z,67.59
2018-07-01T11:22:52.335Z,67.69
2018-07-01T11:23:53.163Z,67.69
2018-07-01T11:24:52.339Z,67.59
2018-07-01T11:25:52.331Z,67.59
2018-07-01T11:26:57.033Z,67.79
2018-07-01T11:27:52.389Z,67.4
2018-07-01T11:28:52.842Z,67.59
2018-07-01T11:30:00.951Z,67.59
2018-07-01T11:30:52.365Z,67.98
2018-07-01T11:31:53.699Z,67.3
2018-07-01T11:32:57.562Z,67.59
2018-07-01T11:33:52.478Z,67.59
2018-07-01T11:34:54.942Z,67.4
2018-07-01T11:35:52.348Z,67.4
2018-07-01T11:36:56.555Z,67.69
2018-07-01T11:37:52.417Z,67.69
2018-07-01T11:38:52.364Z,67.49
2018-07-01T11:39:52.421Z,67.4
2018-07-01T11:40:53.070Z,67.69
2018-07-01T11:41:52.406Z,67.79
2018-07-01T11:42:52.462Z,67.69
2018-07-01T11:44:08.724Z,67.4
2018-07-01T11:45:08.705Z,67.49
2018-07-01T11:46:08.742Z,67.4
2018-07-01T11:47:08.649Z,67.59
2018-07-01T11:48:08.652Z,67.4
2018-07-01T11:49:08.692Z,67.4
2018-07-01T11:50:08.719Z,67.49
2018-07-01T11:51:08.721Z,67.4
2018-07-01T11:52:08.756Z,67.49
2018-07-01T11:53:08.762Z,67.21
2018-07-01T11:54:08.727Z,67.3
2018-07-01T11:55:08.704Z,67.59
2018-07-01T11:56:08.686Z,67.69
2018-07-01T11:57:08.683Z,67.49
2018-07-01T11:58:09.063Z,67.59
2018-07-01T11:59:08.695Z,67.69
2018-07-01T12:00:08.687Z,67.59
2018-07-01T12:01:08.724Z,67.69
2018-07-01T12:02:08.727Z,67.59
2018-07-01T12:03:08.711Z,67.3
2018-07-01T12:04:10.040Z,67.69
2018-07-01T12:05:16.655Z,67.69
2018-07-01T12:06:08.731Z,67.4
2018-07-01T12:07:08.735Z,67.69
2018-07-01T12:08:08.761Z,67.69
2018-07-01T12:09:08.690Z,67.49
2018-07-01T12:10:08.805Z,67.69
2018-07-01T12:11:08.732Z,67.4
2018-07-01T12:15:37.502Z,67.59
2018-07-01T12:16:37.406Z,67.4
2018-07-01T12:17:37.385Z,67.4
2018-07-01T12:18:37.449Z,67.49
2018-07-01T12:19:37.475Z,67.98
2018-07-01T12:20:37.463Z,67.98
2018-07-01T12:21:37.440Z,67.98
2018-07-01T12:22:37.455Z,68.17
2018-07-01T12:23:37.531Z,67.4
2018-07-01T12:24:37.445Z,67.3
2018-07-01T12:25:37.470Z,67.59
2018-07-01T12:26:37.460Z,67.4
2018-07-01T12:27:37.467Z,67.59
2018-07-01T12:28:37.425Z,67.3
2018-07-01T12:29:37.492Z,67.59
2018-07-01T12:30:37.447Z,67.59
2018-07-01T12:31:37.468Z,67.59
2018-07-01T12:32:37.496Z,67.69
2018-07-01T12:33:37.524Z,67.79
2018-07-01T12:34:38.454Z,67.59
2018-07-01T12:35:37.486Z,67.69
2018-07-01T12:36:37.502Z,67.69
2018-07-01T12:37:37.426Z,67.59
2018-07-01T12:38:37.451Z,67.69
2018-07-01T12:39:37.516Z,67.79
2018-07-01T12:40:37.453Z,67.59
2018-07-01T12:41:39.216Z,67.69
2018-07-01T12:42:37.502Z,67.69
2018-07-01T12:43:37.542Z,67.49
2018-07-01T12:44:37.463Z,67.69
2018-07-01T12:45:37.504Z,67.79
2018-07-01T12:46:37.717Z,67.69
2018-07-01T12:47:37.538Z,67.69
2018-07-01T12:48:37.531Z,67.69
2018-07-01T12:49:38.126Z,67.49
2018-07-01T12:50:37.553Z,67.49
2018-07-01T12:51:37.546Z,67.49
2018-07-01T12:52:37.489Z,67.59
2018-07-01T12:53:37.485Z,67.49
2018-07-01T12:54:37.503Z,67.49
2018-07-01T12:55:37.484Z,67.59
2018-07-01T12:56:37.647Z,67.59
2018-07-01T12:57:37.510Z,67.49
2018-07-01T12:58:37.484Z,67.49
2018-07-01T12:59:37.519Z,67.49
2018-07-01T13:00:37.537Z,67.59
2018-07-01T13:01:37.521Z,67.59
2018-07-01T13:02:37.539Z,67.49
2018-07-01T13:03:37.596Z,67.49
2018-07-01T13:04:37.519Z,67.56
2018-07-01T13:05:37.500Z,67.59
2018-07-01T13:06:37.551Z,67.49
2018-07-01T13:07:37.501Z,67.59
2018-07-01T13:08:37.607Z,67.4
2018-07-01T13:09:37.934Z,67.59
2018-07-01T13:10:37.506Z,67.59
2018-07-01T13:11:37.538Z,67.59
2018-07-01T13:12:37.572Z,67.59
2018-07-01T13:13:37.566Z,67.49
2018-07-01T13:14:37.544Z,67.59
2018-07-01T13:15:37.567Z,67.59
2018-07-01T13:16:37.520Z,67.49
2018-07-01T13:17:37.585Z,67.79